sensor_id;sensor_type;location;lat;lon;timestamp;pressure;altitude;pressure_sealevel;temperature;humidity
62458;BME280;48509;52.122;5.250;2023-08-01T00:02:03;99830.0;;;17.43;100.0
62458;BME280;48509;52.122;5.250;2023-08-01T00:03:38;99831.0;;;17.34;100.0
62458;BME280;48509;52.122;5.250;2023-08-01T00:05:14;99830.0;;;17.38;100.0
62458;BME280;48509;52.122;5.250;2023-08-01T00:08:27;99824.0;;;17.43;100.0
62458;BME280;48509;52.122;5.250;2023-08-01T00:10:03;99828.0;;;17.43;100.0
62458;BME280;48509;52.122;5.250;2023-08-01T00:11:40;99832.0;;;17.52;100.0
62458;BME280;48509;52.122;5.250;2023-08-01T00:14:52;99830.0;;;17.48;100.0
62458;BME280;48509;52.122;5.250;2023-08-01T00:16:28;99827.0;;;17.46;100.0
62458;BME280;48509;52.122;5.250;2023-08-01T00:18:05;99830.0;;;17.48;100.0
62458;BME280;48509;52.122;5.250;2023-08-01T00:21:17;99827.0;;;17.48;100.0
62458;BME280;48509;52.122;5.250;2023-08-01T00:22:53;99826.0;;;17.45;100.0
62458;BME280;48509;52.122;5.250;2023-08-01T00:24:29;99822.0;;;17.43;100.0
62458;BME280;48509;52.122;5.250;2023-08-01T00:26:05;99814.0;;;17.47;100.0
62458;BME280;48509;52.122;5.250;2023-08-01T00:39:06;99792.0;;;17.25;100.0
62458;BME280;48509;52.122;5.250;2023-08-01T00:40:42;99793.0;;;17.28;100.0
62458;BME280;48509;52.122;5.250;2023-08-01T00:43:54;99788.0;;;17.32;100.0
62458;BME280;48509;52.122;5.250;2023-08-01T00:45:30;99782.0;;;17.37;100.0
62458;BME280;48509;52.122;5.250;2023-08-01T00:47:06;99780.0;;;17.28;100.0
62458;BME280;48509;52.122;5.250;2023-08-01T00:50:19;99775.0;;;17.36;100.0
62458;BME280;48509;52.122;5.250;2023-08-01T00:51:55;99766.0;;;17.31;100.0
62458;BME280;48509;52.122;5.250;2023-08-01T00:53:31;99760.0;;;17.28;100.0
62458;BME280;48509;52.122;5.250;2023-08-01T00:56:44;99759.0;;;17.22;100.0
62458;BME280;48509;52.122;5.250;2023-08-01T00:58:20;99757.0;;;17.21;100.0
62458;BME280;48509;52.122;5.250;2023-08-01T00:59:56;99755.0;;;17.23;100.0
62458;BME280;48509;52.122;5.250;2023-08-01T01:03:08;99755.0;;;17.16;100.0
62458;BME280;48509;52.122;5.250;2023-08-01T01:04:44;99750.0;;;17.23;100.0
62458;BME280;48509;52.122;5.250;2023-08-01T01:06:23;99755.0;;;17.11;100.0
62458;BME280;48509;52.122;5.250;2023-08-01T01:08:03;99752.0;;;17.02;100.0
62458;BME280;48509;52.122;5.250;2023-08-01T01:11:17;99755.0;;;16.96;100.0
62458;BME280;48509;52.122;5.250;2023-08-01T01:12:53;99756.0;;;16.95;100.0
62458;BME280;48509;52.122;5.250;2023-08-01T01:14:29;99755.0;;;16.93;100.0
62458;BME280;48509;52.122;5.250;2023-08-01T01:17:41;99756.0;;;16.98;100.0
62458;BME280;48509;52.122;5.250;2023-08-01T01:19:17;99755.0;;;16.95;100.0
62458;BME280;48509;52.122;5.250;2023-08-01T01:20:53;99758.0;;;16.86;100.0
62458;BME280;48509;52.122;5.250;2023-08-01T01:24:09;99757.0;;;16.84;100.0
62458;BME280;48509;52.122;5.250;2023-08-01T01:25:46;99757.0;;;16.86;100.0
62458;BME280;48509;52.122;5.250;2023-08-01T01:27:23;99759.0;;;16.9;100.0
62458;BME280;48509;52.122;5.250;2023-08-01T01:29:02;99763.0;;;16.86;100.0
62458;BME280;48509;52.122;5.250;2023-08-01T01:32:17;99763.0;;;16.93;100.0
62458;BME280;48509;52.122;5.250;2023-08-01T01:33:54;99759.0;;;16.88;100.0
62458;BME280;48509;52.122;5.250;2023-08-01T01:35:33;99761.0;;;16.82;100.0
62458;BME280;48509;52.122;5.250;2023-08-01T01:38:45;99760.0;;;16.75;100.0
62458;BME280;48509;52.122;5.250;2023-08-01T01:40:21;99755.0;;;16.89;100.0
62458;BME280;48509;52.122;5.250;2023-08-01T01:41:57;99755.0;;;16.84;100.0
62458;BME280;48509;52.122;5.250;2023-08-01T01:43:33;99750.0;;;16.81;100.0
62458;BME280;48509;52.122;5.250;2023-08-01T01:46:46;99753.0;;;16.89;100.0
62458;BME280;48509;52.122;5.250;2023-08-01T01:48:22;99749.0;;;16.84;100.0
62458;BME280;48509;52.122;5.250;2023-08-01T01:49:58;99750.0;;;16.75;100.0
62458;BME280;48509;52.122;5.250;2023-08-01T01:53:11;99749.0;;;16.79;100.0
62458;BME280;48509;52.122;5.250;2023-08-01T01:54:47;99755.0;;;16.84;100.0
62458;BME280;48509;52.122;5.250;2023-08-01T01:56:23;99755.0;;;16.77;100.0
62458;BME280;48509;52.122;5.250;2023-08-01T01:59:35;99748.0;;;16.77;100.0
62458;BME280;48509;52.122;5.250;2023-08-01T02:01:11;99749.0;;;16.77;100.0
62458;BME280;48509;52.122;5.250;2023-08-01T02:02:48;99749.0;;;16.84;100.0
62458;BME280;48509;52.122;5.250;2023-08-01T02:04:24;99750.0;;;16.82;100.0
62458;BME280;48509;52.122;5.250;2023-08-01T02:07:36;99752.0;;;16.88;100.0
62458;BME280;48509;52.122;5.250;2023-08-01T02:09:12;99747.0;;;16.95;100.0
62458;BME280;48509;52.122;5.250;2023-08-01T02:10:48;99745.0;;;16.91;100.0
62458;BME280;48509;52.122;5.250;2023-08-01T02:14:00;99742.0;;;16.91;100.0
62458;BME280;48509;52.122;5.250;2023-08-01T02:15:36;99735.0;;;16.89;100.0
62458;BME280;48509;52.122;5.250;2023-08-01T02:17:12;99736.0;;;16.9;100.0
62458;BME280;48509;52.122;5.250;2023-08-01T02:20:25;99739.0;;;16.93;100.0
62458;BME280;48509;52.122;5.250;2023-08-01T02:22:01;99741.0;;;17.02;100.0
62458;BME280;48509;52.122;5.250;2023-08-01T02:23:37;99736.0;;;17.0;100.0
62458;BME280;48509;52.122;5.250;2023-08-01T02:26:50;99736.0;;;17.09;100.0
62458;BME280;48509;52.122;5.250;2023-08-01T02:28:26;99736.0;;;17.07;100.0
62458;BME280;48509;52.122;5.250;2023-08-01T02:30:03;99741.0;;;17.27;100.0
62458;BME280;48509;52.122;5.250;2023-08-01T02:31:38;99757.0;;;17.27;100.0
62458;BME280;48509;52.122;5.250;2023-08-01T02:34:51;99753.0;;;17.18;100.0
62458;BME280;48509;52.122;5.250;2023-08-01T02:36:27;99750.0;;;17.12;100.0
62458;BME280;48509;52.122;5.250;2023-08-01T02:38:03;99750.0;;;17.11;100.0
62458;BME280;48509;52.122;5.250;2023-08-01T02:41:15;99742.0;;;17.11;100.0
62458;BME280;48509;52.122;5.250;2023-08-01T02:42:51;99741.0;;;17.13;100.0
62458;BME280;48509;52.122;5.250;2023-08-01T02:44:27;99748.0;;;17.16;100.0
62458;BME280;48509;52.122;5.250;2023-08-01T02:47:41;99755.0;;;17.16;100.0
62458;BME280;48509;52.122;5.250;2023-08-01T02:49:17;99755.0;;;16.97;100.0
62458;BME280;48509;52.122;5.250;2023-08-01T02:50:53;99760.0;;;16.86;100.0
62458;BME280;48509;52.122;5.250;2023-08-01T02:52:30;99760.0;;;16.95;100.0
62458;BME280;48509;52.122;5.250;2023-08-01T02:55:44;99749.0;;;16.98;100.0
62458;BME280;48509;52.122;5.250;2023-08-01T02:57:20;99740.0;;;16.95;100.0
62458;BME280;48509;52.122;5.250;2023-08-01T02:58:56;99743.0;;;16.96;100.0
62458;BME280;48509;52.122;5.250;2023-08-01T03:02:08;99742.0;;;17.12;100.0
62458;BME280;48509;52.122;5.250;2023-08-01T03:03:44;99741.0;;;17.11;100.0
62458;BME280;48509;52.122;5.250;2023-08-01T03:05:20;99739.0;;;17.11;100.0
62458;BME280;48509;52.122;5.250;2023-08-01T03:08:32;99733.0;;;17.04;100.0
62458;BME280;48509;52.122;5.250;2023-08-01T03:10:09;99737.0;;;17.04;100.0
62458;BME280;48509;52.122;5.250;2023-08-01T03:11:45;99736.0;;;16.98;100.0
62458;BME280;48509;52.122;5.250;2023-08-01T03:14:57;99734.0;;;16.9;100.0
62458;BME280;48509;52.122;5.250;2023-08-01T03:16:33;99739.0;;;17.02;100.0
62458;BME280;48509;52.122;5.250;2023-08-01T03:18:09;99736.0;;;16.91;100.0
62458;BME280;48509;52.122;5.250;2023-08-01T03:19:45;99739.0;;;17.02;100.0
62458;BME280;48509;52.122;5.250;2023-08-01T03:22:57;99742.0;;;16.95;100.0
62458;BME280;48509;52.122;5.250;2023-08-01T03:24:33;99746.0;;;17.06;100.0
62458;BME280;48509;52.122;5.250;2023-08-01T03:26:10;99746.0;;;16.96;100.0
62458;BME280;48509;52.122;5.250;2023-08-01T03:29:22;99747.0;;;17.03;100.0
62458;BME280;48509;52.122;5.250;2023-08-01T03:30:58;99740.0;;;17.02;100.0
62458;BME280;48509;52.122;5.250;2023-08-01T03:32:34;99734.0;;;16.88;100.0
62458;BME280;48509;52.122;5.250;2023-08-01T03:35:46;99733.0;;;17.0;100.0
62458;BME280;48509;52.122;5.250;2023-08-01T03:37:22;99735.0;;;17.04;100.0
62458;BME280;48509;52.122;5.250;2023-08-01T03:38:58;99737.0;;;17.13;100.0
62458;BME280;48509;52.122;5.250;2023-08-01T03:42:10;99735.0;;;17.2;100.0
62458;BME280;48509;52.122;5.250;2023-08-01T03:43:46;99731.0;;;17.09;100.0
62458;BME280;48509;52.122;5.250;2023-08-01T03:45:22;99733.0;;;17.18;100.0
62458;BME280;48509;52.122;5.250;2023-08-01T03:46:59;99734.0;;;17.25;100.0
62458;BME280;48509;52.122;5.250;2023-08-01T03:50:11;99735.0;;;17.29;100.0
62458;BME280;48509;52.122;5.250;2023-08-01T03:51:47;99737.0;;;17.28;100.0
62458;BME280;48509;52.122;5.250;2023-08-01T03:53:23;99733.0;;;17.21;100.0
62458;BME280;48509;52.122;5.250;2023-08-01T03:56:35;99735.0;;;17.41;100.0
62458;BME280;48509;52.122;5.250;2023-08-01T03:58:11;99738.0;;;17.41;100.0
62458;BME280;48509;52.122;5.250;2023-08-01T03:59:47;99743.0;;;17.37;100.0
62458;BME280;48509;52.122;5.250;2023-08-01T04:03:00;99747.0;;;17.45;100.0
62458;BME280;48509;52.122;5.250;2023-08-01T04:04:37;99750.0;;;17.34;100.0
62458;BME280;48509;52.122;5.250;2023-08-01T04:06:13;99748.0;;;17.41;100.0
62458;BME280;48509;52.122;5.250;2023-08-01T04:07:49;99750.0;;;17.34;100.0
62458;BME280;48509;52.122;5.250;2023-08-01T04:11:01;99747.0;;;17.38;100.0
62458;BME280;48509;52.122;5.250;2023-08-01T04:12:37;99749.0;;;17.23;100.0
62458;BME280;48509;52.122;5.250;2023-08-01T04:14:13;99748.0;;;17.29;100.0
62458;BME280;48509;52.122;5.250;2023-08-01T04:17:26;99747.0;;;17.3;100.0
62458;BME280;48509;52.122;5.250;2023-08-01T04:19:03;99747.0;;;17.25;100.0
62458;BME280;48509;52.122;5.250;2023-08-01T04:20:39;99742.0;;;17.39;100.0
62458;BME280;48509;52.122;5.250;2023-08-01T04:23:51;99745.0;;;17.41;100.0
62458;BME280;48509;52.122;5.250;2023-08-01T04:25:27;99743.0;;;17.3;100.0
62458;BME280;48509;52.122;5.250;2023-08-01T04:27:04;99740.0;;;17.45;100.0
62458;BME280;48509;52.122;5.250;2023-08-01T04:30:16;99737.0;;;17.53;100.0
62458;BME280;48509;52.122;5.250;2023-08-01T04:31:53;99737.0;;;17.41;100.0
62458;BME280;48509;52.122;5.250;2023-08-01T04:33:29;99736.0;;;17.16;100.0
62458;BME280;48509;52.122;5.250;2023-08-01T04:35:05;99738.0;;;17.16;100.0
62458;BME280;48509;52.122;5.250;2023-08-01T04:38:18;99734.0;;;17.14;100.0
62458;BME280;48509;52.122;5.250;2023-08-01T04:39:54;99734.0;;;17.18;100.0
62458;BME280;48509;52.122;5.250;2023-08-01T04:41:30;99727.0;;;17.29;100.0
62458;BME280;48509;52.122;5.250;2023-08-01T04:44:43;99736.0;;;17.34;100.0
62458;BME280;48509;52.122;5.250;2023-08-01T04:46:19;99733.0;;;17.41;100.0
62458;BME280;48509;52.122;5.250;2023-08-01T04:47:55;99734.0;;;17.43;100.0
62458;BME280;48509;52.122;5.250;2023-08-01T04:51:07;99730.0;;;17.45;100.0
62458;BME280;48509;52.122;5.250;2023-08-01T04:52:43;99730.0;;;17.54;100.0
62458;BME280;48509;52.122;5.250;2023-08-01T04:54:19;99730.0;;;17.63;100.0
62458;BME280;48509;52.122;5.250;2023-08-01T04:55:55;99730.0;;;17.61;100.0
62458;BME280;48509;52.122;5.250;2023-08-01T04:59:07;99732.0;;;17.5;100.0
62458;BME280;48509;52.122;5.250;2023-08-01T05:00:43;99736.0;;;17.55;100.0
62458;BME280;48509;52.122;5.250;2023-08-01T05:02:19;99738.0;;;17.57;100.0
62458;BME280;48509;52.122;5.250;2023-08-01T05:05:31;99737.0;;;17.61;100.0
62458;BME280;48509;52.122;5.250;2023-08-01T05:07:07;99741.0;;;17.68;100.0
62458;BME280;48509;52.122;5.250;2023-08-01T05:08:43;99744.0;;;17.81;100.0
62458;BME280;48509;52.122;5.250;2023-08-01T05:11:55;99747.0;;;17.93;100.0
62458;BME280;48509;52.122;5.250;2023-08-01T05:13:31;99751.0;;;17.89;100.0
62458;BME280;48509;52.122;5.250;2023-08-01T05:15:08;99744.0;;;17.86;100.0
62458;BME280;48509;52.122;5.250;2023-08-01T05:18:20;99751.0;;;17.88;100.0
62458;BME280;48509;52.122;5.250;2023-08-01T05:19:56;99740.0;;;17.75;100.0
62458;BME280;48509;52.122;5.250;2023-08-01T05:21:32;99746.0;;;17.75;100.0
62458;BME280;48509;52.122;5.250;2023-08-01T05:23:08;99749.0;;;17.81;100.0
62458;BME280;48509;52.122;5.250;2023-08-01T05:26:21;99750.0;;;17.91;100.0
62458;BME280;48509;52.122;5.250;2023-08-01T05:27:57;99751.0;;;17.82;100.0
62458;BME280;48509;52.122;5.250;2023-08-01T05:29:33;99746.0;;;17.77;100.0
62458;BME280;48509;52.122;5.250;2023-08-01T05:32:46;99753.0;;;17.8;100.0
62458;BME280;48509;52.122;5.250;2023-08-01T05:34:22;99759.0;;;17.81;100.0
62458;BME280;48509;52.122;5.250;2023-08-01T05:35:58;99757.0;;;17.84;100.0
62458;BME280;48509;52.122;5.250;2023-08-01T05:39:10;99755.0;;;17.86;100.0
62458;BME280;48509;52.122;5.250;2023-08-01T05:40:46;99758.0;;;17.82;100.0
62458;BME280;48509;52.122;5.250;2023-08-01T05:42:22;99758.0;;;17.71;100.0
62458;BME280;48509;52.122;5.250;2023-08-01T05:45:35;99759.0;;;17.84;100.0
62458;BME280;48509;52.122;5.250;2023-08-01T05:47:10;99757.0;;;17.68;100.0
62458;BME280;48509;52.122;5.250;2023-08-01T05:48:47;99755.0;;;17.75;100.0
62458;BME280;48509;52.122;5.250;2023-08-01T05:50:23;99758.0;;;17.95;100.0
62458;BME280;48509;52.122;5.250;2023-08-01T05:53:35;99760.0;;;17.84;100.0
62458;BME280;48509;52.122;5.250;2023-08-01T05:55:11;99761.0;;;17.79;100.0
62458;BME280;48509;52.122;5.250;2023-08-01T05:56:48;99768.0;;;17.86;100.0
62458;BME280;48509;52.122;5.250;2023-08-01T06:00:00;99767.0;;;17.87;100.0
62458;BME280;48509;52.122;5.250;2023-08-01T06:01:36;99767.0;;;17.78;100.0
62458;BME280;48509;52.122;5.250;2023-08-01T06:03:12;99768.0;;;17.72;100.0
62458;BME280;48509;52.122;5.250;2023-08-01T06:06:25;99772.0;;;17.73;100.0
62458;BME280;48509;52.122;5.250;2023-08-01T06:08:02;99772.0;;;17.7;100.0
62458;BME280;48509;52.122;5.250;2023-08-01T06:09:37;99772.0;;;17.7;100.0
62458;BME280;48509;52.122;5.250;2023-08-01T06:11:14;99775.0;;;17.73;100.0
62458;BME280;48509;52.122;5.250;2023-08-01T06:14:26;99776.0;;;17.77;100.0
62458;BME280;48509;52.122;5.250;2023-08-01T06:16:02;99776.0;;;17.79;100.0
62458;BME280;48509;52.122;5.250;2023-08-01T06:17:38;99781.0;;;17.88;100.0
62458;BME280;48509;52.122;5.250;2023-08-01T06:20:50;99786.0;;;17.96;100.0
62458;BME280;48509;52.122;5.250;2023-08-01T06:22:26;99786.0;;;17.88;100.0
62458;BME280;48509;52.122;5.250;2023-08-01T06:24:03;99787.0;;;17.77;100.0
62458;BME280;48509;52.122;5.250;2023-08-01T06:27:15;99789.0;;;17.88;100.0
62458;BME280;48509;52.122;5.250;2023-08-01T06:28:51;99795.0;;;18.07;100.0
62458;BME280;48509;52.122;5.250;2023-08-01T06:30:28;99795.0;;;18.07;100.0
62458;BME280;48509;52.122;5.250;2023-08-01T06:33:41;99800.0;;;18.18;100.0
62458;BME280;48509;52.122;5.250;2023-08-01T06:35:17;99799.0;;;18.16;100.0
62458;BME280;48509;52.122;5.250;2023-08-01T06:36:53;99807.0;;;18.09;100.0
62458;BME280;48509;52.122;5.250;2023-08-01T06:38:29;99808.0;;;18.06;100.0
62458;BME280;48509;52.122;5.250;2023-08-01T06:41:43;99809.0;;;18.12;100.0
62458;BME280;48509;52.122;5.250;2023-08-01T06:43:19;99808.0;;;18.27;100.0
62458;BME280;48509;52.122;5.250;2023-08-01T06:44:54;99812.0;;;18.21;100.0
62458;BME280;48509;52.122;5.250;2023-08-01T06:48:06;99806.0;;;18.12;100.0
62458;BME280;48509;52.122;5.250;2023-08-01T06:49:43;99809.0;;;18.16;100.0
62458;BME280;48509;52.122;5.250;2023-08-01T06:51:19;99809.0;;;18.13;100.0
62458;BME280;48509;52.122;5.250;2023-08-01T06:54:32;99808.0;;;18.25;100.0
62458;BME280;48509;52.122;5.250;2023-08-01T06:56:08;99807.0;;;18.36;100.0
62458;BME280;48509;52.122;5.250;2023-08-01T06:57:44;99812.0;;;18.32;100.0
62458;BME280;48509;52.122;5.250;2023-08-01T07:00:57;99801.0;;;18.31;100.0
62458;BME280;48509;52.122;5.250;2023-08-01T07:02:33;99803.0;;;18.59;100.0
62458;BME280;48509;52.122;5.250;2023-08-01T07:04:09;99807.0;;;18.46;100.0
62458;BME280;48509;52.122;5.250;2023-08-01T07:05:46;99805.0;;;18.55;100.0
62458;BME280;48509;52.122;5.250;2023-08-01T07:08:58;99796.0;;;18.52;100.0
62458;BME280;48509;52.122;5.250;2023-08-01T07:10:34;99801.0;;;18.45;100.0
62458;BME280;48509;52.122;5.250;2023-08-01T07:12:11;99801.0;;;18.57;100.0
62458;BME280;48509;52.122;5.250;2023-08-01T07:15:23;99809.0;;;18.66;100.0
62458;BME280;48509;52.122;5.250;2023-08-01T07:18:35;99812.0;;;18.47;100.0
62458;BME280;48509;52.122;5.250;2023-08-01T07:21:48;99810.0;;;18.41;100.0
62458;BME280;48509;52.122;5.250;2023-08-01T07:23:24;99808.0;;;18.32;100.0
62458;BME280;48509;52.122;5.250;2023-08-01T07:25:00;99809.0;;;18.22;100.0
62458;BME280;48509;52.122;5.250;2023-08-01T07:26:36;99814.0;;;18.2;100.0
62458;BME280;48509;52.122;5.250;2023-08-01T07:29:48;99820.0;;;18.31;100.0
62458;BME280;48509;52.122;5.250;2023-08-01T07:31:24;99816.0;;;18.27;100.0
62458;BME280;48509;52.122;5.250;2023-08-01T07:33:00;99816.0;;;18.32;100.0
62458;BME280;48509;52.122;5.250;2023-08-01T07:36:12;99819.0;;;18.37;100.0
62458;BME280;48509;52.122;5.250;2023-08-01T07:37:48;99816.0;;;18.52;100.0
62458;BME280;48509;52.122;5.250;2023-08-01T07:39:25;99820.0;;;18.55;100.0
62458;BME280;48509;52.122;5.250;2023-08-01T07:42:39;99818.0;;;18.47;100.0
62458;BME280;48509;52.122;5.250;2023-08-01T07:44:15;99816.0;;;18.5;100.0
62458;BME280;48509;52.122;5.250;2023-08-01T07:45:55;99826.0;;;18.27;100.0
62458;BME280;48509;52.122;5.250;2023-08-01T07:47:32;99826.0;;;18.2;100.0
62458;BME280;48509;52.122;5.250;2023-08-01T07:50:45;99826.0;;;18.03;100.0
62458;BME280;48509;52.122;5.250;2023-08-01T07:52:21;99826.0;;;18.05;100.0
62458;BME280;48509;52.122;5.250;2023-08-01T07:53:57;99830.0;;;18.09;100.0
62458;BME280;48509;52.122;5.250;2023-08-01T07:57:10;99822.0;;;18.16;100.0
62458;BME280;48509;52.122;5.250;2023-08-01T07:58:47;99820.0;;;18.18;100.0
62458;BME280;48509;52.122;5.250;2023-08-01T08:00:23;99821.0;;;18.25;100.0
62458;BME280;48509;52.122;5.250;2023-08-01T08:03:35;99819.0;;;18.31;100.0
62458;BME280;48509;52.122;5.250;2023-08-01T08:05:12;99827.0;;;18.52;100.0
62458;BME280;48509;52.122;5.250;2023-08-01T08:06:47;99826.0;;;18.62;100.0
62458;BME280;48509;52.122;5.250;2023-08-01T08:08:24;99824.0;;;18.62;100.0
62458;BME280;48509;52.122;5.250;2023-08-01T08:11:36;99830.0;;;18.7;100.0
62458;BME280;48509;52.122;5.250;2023-08-01T08:13:12;99830.0;;;18.75;100.0
62458;BME280;48509;52.122;5.250;2023-08-01T08:14:48;99840.0;;;18.93;100.0
62458;BME280;48509;52.122;5.250;2023-08-01T08:18:00;99838.0;;;18.84;100.0
62458;BME280;48509;52.122;5.250;2023-08-01T08:19:37;99846.0;;;18.86;100.0
62458;BME280;48509;52.122;5.250;2023-08-01T08:21:13;99847.0;;;18.88;100.0
62458;BME280;48509;52.122;5.250;2023-08-01T08:24:26;99850.0;;;18.93;100.0
62458;BME280;48509;52.122;5.250;2023-08-01T08:26:02;99845.0;;;18.91;100.0
62458;BME280;48509;52.122;5.250;2023-08-01T08:27:38;99851.0;;;18.79;100.0
62458;BME280;48509;52.122;5.250;2023-08-01T08:30:51;99850.0;;;18.93;100.0
62458;BME280;48509;52.122;5.250;2023-08-01T08:32:27;99843.0;;;18.77;99.21
62458;BME280;48509;52.122;5.250;2023-08-01T08:34:03;99848.0;;;18.84;100.0
62458;BME280;48509;52.122;5.250;2023-08-01T08:35:39;99844.0;;;18.97;100.0
62458;BME280;48509;52.122;5.250;2023-08-01T08:38:52;99835.0;;;19.12;100.0
62458;BME280;48509;52.122;5.250;2023-08-01T08:40:28;99847.0;;;19.13;99.7
62458;BME280;48509;52.122;5.250;2023-08-01T08:42:04;99847.0;;;19.25;98.65
62458;BME280;48509;52.122;5.250;2023-08-01T08:45:19;99850.0;;;19.34;99.48
62458;BME280;48509;52.122;5.250;2023-08-01T08:46:59;99852.0;;;19.31;97.73
62458;BME280;48509;52.122;5.250;2023-08-01T08:48:39;99855.0;;;19.37;94.4
62458;BME280;48509;52.122;5.250;2023-08-01T08:50:17;99852.0;;;19.41;96.53
62458;BME280;48509;52.122;5.250;2023-08-01T08:53:31;99856.0;;;19.43;97.02
62458;BME280;48509;52.122;5.250;2023-08-01T08:55:08;99845.0;;;19.39;96.39
62458;BME280;48509;52.122;5.250;2023-08-01T08:56:45;99845.0;;;19.57;96.68
62458;BME280;48509;52.122;5.250;2023-08-01T09:00:03;99850.0;;;19.53;93.26
62458;BME280;48509;52.122;5.250;2023-08-01T09:01:40;99861.0;;;19.48;92.35
62458;BME280;48509;52.122;5.250;2023-08-01T09:03:16;99864.0;;;19.47;93.81
62458;BME280;48509;52.122;5.250;2023-08-01T09:06:30;99863.0;;;19.3;95.82
62458;BME280;48509;52.122;5.250;2023-08-01T09:08:18;99870.0;;;19.32;96.28
62458;BME280;48509;52.122;5.250;2023-08-01T09:09:54;99867.0;;;19.18;98.29
62458;BME280;48509;52.122;5.250;2023-08-01T09:11:39;99865.0;;;19.18;97.38
62458;BME280;48509;52.122;5.250;2023-08-01T09:13:18;99868.0;;;19.18;100.0
62458;BME280;48509;52.122;5.250;2023-08-01T09:16:33;99875.0;;;19.14;100.0
62458;BME280;48509;52.122;5.250;2023-08-01T09:18:09;99877.0;;;19.2;100.0
62458;BME280;48509;52.122;5.250;2023-08-01T09:19:45;99880.0;;;18.97;98.66
62458;BME280;48509;52.122;5.250;2023-08-01T09:22:58;99880.0;;;19.02;99.36
62458;BME280;48509;52.122;5.250;2023-08-01T09:24:34;99878.0;;;19.18;100.0
62458;BME280;48509;52.122;5.250;2023-08-01T09:26:13;99883.0;;;19.16;100.0
62458;BME280;48509;52.122;5.250;2023-08-01T09:29:25;99880.0;;;19.11;99.08
62458;BME280;48509;52.122;5.250;2023-08-01T09:31:01;99886.0;;;19.18;98.9
62458;BME280;48509;52.122;5.250;2023-08-01T09:32:37;99895.0;;;19.27;100.0
62458;BME280;48509;52.122;5.250;2023-08-01T09:34:19;99911.0;;;19.27;100.0
62458;BME280;48509;52.122;5.250;2023-08-01T09:37:40;99903.0;;;19.36;100.0
62458;BME280;48509;52.122;5.250;2023-08-01T09:39:19;99899.0;;;19.36;100.0
62458;BME280;48509;52.122;5.250;2023-08-01T09:40:54;99907.0;;;19.27;100.0
62458;BME280;48509;52.122;5.250;2023-08-01T09:42:37;99901.0;;;19.14;100.0
62458;BME280;48509;52.122;5.250;2023-08-01T09:45:53;99905.0;;;19.04;100.0
62458;BME280;48509;52.122;5.250;2023-08-01T09:47:36;99913.0;;;18.86;100.0
62458;BME280;48509;52.122;5.250;2023-08-01T09:49:13;99909.0;;;19.02;100.0
62458;BME280;48509;52.122;5.250;2023-08-01T09:52:27;99909.0;;;19.04;100.0
62458;BME280;48509;52.122;5.250;2023-08-01T09:54:03;99905.0;;;19.12;100.0
62458;BME280;48509;52.122;5.250;2023-08-01T09:55:40;99902.0;;;19.16;100.0
62458;BME280;48509;52.122;5.250;2023-08-01T09:57:19;99911.0;;;19.22;99.65
62458;BME280;48509;52.122;5.250;2023-08-01T10:00:36;99902.0;;;19.31;100.0
62458;BME280;48509;52.122;5.250;2023-08-01T10:02:15;99905.0;;;19.45;97.91
62458;BME280;48509;52.122;5.250;2023-08-01T10:03:56;99905.0;;;19.52;97.14
62458;BME280;48509;52.122;5.250;2023-08-01T10:05:34;99910.0;;;19.5;93.89
62458;BME280;48509;52.122;5.250;2023-08-01T10:08:51;99916.0;;;19.41;96.3
62458;BME280;48509;52.122;5.250;2023-08-01T10:10:28;99925.0;;;19.34;92.33
62458;BME280;48509;52.122;5.250;2023-08-01T10:12:07;99912.0;;;19.29;91.83
62458;BME280;48509;52.122;5.250;2023-08-01T10:15:23;99928.0;;;19.29;91.74
62458;BME280;48509;52.122;5.250;2023-08-01T10:17:01;99925.0;;;19.29;90.72
62458;BME280;48509;52.122;5.250;2023-08-01T10:18:39;99927.0;;;19.36;89.59
62458;BME280;48509;52.122;5.250;2023-08-01T10:20:15;99923.0;;;19.59;93.86
62458;BME280;48509;52.122;5.250;2023-08-01T10:23:30;99928.0;;;19.87;91.88
62458;BME280;48509;52.122;5.250;2023-08-01T10:25:09;99923.0;;;19.91;84.25
62458;BME280;48509;52.122;5.250;2023-08-01T10:26:45;99925.0;;;19.98;87.3
62458;BME280;48509;52.122;5.250;2023-08-01T10:30:07;99930.0;;;19.93;88.59
62458;BME280;48509;52.122;5.250;2023-08-01T10:31:50;99928.0;;;19.91;90.14
62458;BME280;48509;52.122;5.250;2023-08-01T10:33:33;99935.0;;;20.0;91.37
62458;BME280;48509;52.122;5.250;2023-08-01T10:35:09;99937.0;;;19.89;88.82
62458;BME280;48509;52.122;5.250;2023-08-01T10:38:30;99942.0;;;19.86;88.28
62458;BME280;48509;52.122;5.250;2023-08-01T10:40:07;99935.0;;;20.0;88.34
62458;BME280;48509;52.122;5.250;2023-08-01T10:41:43;99941.0;;;20.09;90.11
62458;BME280;48509;52.122;5.250;2023-08-01T10:43:20;99931.0;;;20.11;86.97
62458;BME280;48509;52.122;5.250;2023-08-01T10:46:50;99933.0;;;20.32;89.16
62458;BME280;48509;52.122;5.250;2023-08-01T10:48:26;99955.0;;;20.51;87.11
62458;BME280;48509;52.122;5.250;2023-08-01T10:50:13;99938.0;;;20.36;80.47
62458;BME280;48509;52.122;5.250;2023-08-01T10:51:50;99939.0;;;20.18;79.94
62458;BME280;48509;52.122;5.250;2023-08-01T10:55:13;99939.0;;;20.3;80.23
62458;BME280;48509;52.122;5.250;2023-08-01T10:56:51;99943.0;;;20.38;81.53
62458;BME280;48509;52.122;5.250;2023-08-01T10:58:32;99951.0;;;20.55;81.8
62458;BME280;48509;52.122;5.250;2023-08-01T11:00:09;99951.0;;;20.6;81.23
62458;BME280;48509;52.122;5.250;2023-08-01T11:03:33;99956.0;;;20.61;80.12
62458;BME280;48509;52.122;5.250;2023-08-01T11:05:11;99955.0;;;20.6;80.77
62458;BME280;48509;52.122;5.250;2023-08-01T11:06:48;99943.0;;;20.57;82.03
62458;BME280;48509;52.122;5.250;2023-08-01T11:08:34;99958.0;;;20.43;81.17
62458;BME280;48509;52.122;5.250;2023-08-01T11:11:50;99957.0;;;20.29;81.72
62458;BME280;48509;52.122;5.250;2023-08-01T11:13:27;99961.0;;;20.36;81.34
62458;BME280;48509;52.122;5.250;2023-08-01T11:15:05;99953.0;;;20.39;83.22
62458;BME280;48509;52.122;5.250;2023-08-01T11:16:43;99961.0;;;20.43;82.91
62458;BME280;48509;52.122;5.250;2023-08-01T11:20:04;99962.0;;;20.54;81.24
62458;BME280;48509;52.122;5.250;2023-08-01T11:21:53;99962.0;;;20.72;79.77
62458;BME280;48509;52.122;5.250;2023-08-01T11:23:30;99974.0;;;20.85;76.95
62458;BME280;48509;52.122;5.250;2023-08-01T11:25:07;99959.0;;;20.86;76.84
62458;BME280;48509;52.122;5.250;2023-08-01T11:28:20;99959.0;;;21.09;77.48